Wahneta, FL

1:13 PM EST on December 19, 2014 (GMT -0500)
Winter Haven, FL | Change Station
CLOSE
Current Station
Personal Weather Station
Location: Winter Haven, FL
Elevation: 126 ft
Nearby Weather Stations

Elev 126 ft 28.02 °N, 81.71 °W | Updated 8 minutes ago

Mostly Cloudy
Mostly Cloudy
68.9 °F
Feels Like 68.9 °F
N
3.7
Wind Variable Wind from East

Today
High -- | Low -- °F
--% Chance of Precip.
Yesterday
High -- | Low -- °F
Precip. -- in
7:13 AM 5:35 PM
Waning Crescent, 7% visible
Pressure 30.10 in
Visibility 10.0 miles
Clouds Clear
Dew Point 54 °F
Humidity 60%
Rainfall 0.00 in
Snow Depth Not available.
UV 6 out of 12
Pollen 6.60 out of 12
Air Quality Not available.
Flu Activity Not available.
METAR KGIF 191753Z AUTO VRB03KT 10SM CLR 21/09 A3010 RMK AO2 SLP192 T02110089 10217 20106 58022

More Conditions Fewer Conditions

Pressure 30.10 in
Visibility 10.0 miles
Clouds Clear
Dew Point 54 °F
Humidity 60%
Rainfall 0.00 in
Snow Depth Not available.
UV 6 out of 12
Pollen 6.60 out of 12
Air Quality Not available.
Flu Activity Not available.
METAR KGIF 191753Z AUTO VRB03KT 10SM CLR 21/09 A3010 RMK AO2 SLP192 T02110089 10217 20106 58022

More Conditions Fewer Conditions

10-Day Weather Forecast

Almanac

Astronomy

Dec. 19, 2014 Rise Set
Actual Time
Civil Twilight
Nautical Twilight
Astronomical Twilight
Moon
Length of Visible Light
Length of Day
Tomorrow will be .
, % of the Moon is Illuminated

Today's Extremes

State Highs State Lows

Community

WunderPhotos

Upload Photos

1,779,015 photos uploaded!

WunderBlogs® & News

Nearby

Air Quality

  Air Quality AQ Index Pollutant
Not available.

Snow Depth

Station Depth Elevation

Earthquake Activity

City Distance Mag. Time & Date
Minimum magnitude displayed is 2.5.

Coastal Water Temperatures

Place Temperature

Nearby Weather Stations